04FD weather

Tampa General Hospital Brandon Healthplex Heliport
Brandon, Florida, United States

Public forecast

Using degrees Fahrenheit for public forecast. Weather courtesy of forecast.io.

Closest aviation weather report (METAR) to Tampa General Hospital Brandon Healthplex Heliport

Closest report is Tampa Executive Airport, 5.1 nm (9.4 km) N. Retrieved 2019/12/06 10:35 UTC (0 seconds ago):

KVDF 061035Z AUTO 00000KT 7SM CLR 05/05 A3017 RMK AO2

Closest aviation forecast (TAF) to Tampa General Hospital Brandon Healthplex Heliport

Closest forecast is Tampa International Airport, 10.8 nm (19.9 km) WNW. Retrieved 2019/12/06 06:39 UTC (4 hours ago):

TAF KTPA 060535Z 0606/0712 VRB03KT P6SM BKN250 FM061900 24007KT P6SM SCT250 FM062300 VRB04KT P6SM FEW250